createdAt,value
2019-02-28T00:01:15.442Z,0.50
2019-02-28T00:03:43.696Z,0.60
2019-02-28T00:06:12.559Z,0.70
2019-02-28T00:08:41.167Z,0.80
2019-02-28T00:11:11.006Z,0.80
2019-02-28T00:13:39.242Z,0.80
2019-02-28T00:16:07.196Z,0.80
2019-02-28T00:18:35.337Z,0.70
2019-02-28T00:21:06.395Z,0.60
2019-02-28T00:23:33.680Z,0.50
2019-02-28T00:26:01.864Z,0.40
2019-02-28T00:28:29.960Z,0.40
2019-02-28T00:30:57.963Z,0.40
2019-02-28T00:33:26.243Z,0.30
2019-02-28T00:35:54.475Z,0.30
2019-02-28T00:38:22.539Z,0.40
2019-02-28T00:40:50.398Z,0.40
2019-02-28T00:43:18.940Z,0.40
2019-02-28T00:45:47.049Z,0.40
2019-02-28T00:48:15.221Z,0.30
2019-02-28T00:50:43.378Z,0.20
2019-02-28T00:53:11.592Z,0.10
2019-02-28T00:55:39.704Z,0.00
2019-02-28T00:58:07.715Z,-0.10
2019-02-28T01:00:37.073Z,0.00
2019-02-28T01:03:06.055Z,0.10
2019-02-28T01:05:36.614Z,0.20
2019-02-28T01:08:05.660Z,0.30
2019-02-28T01:10:39.223Z,0.20
2019-02-28T01:13:05.436Z,0.10
2019-02-28T01:15:34.351Z,0.10
2019-02-28T01:18:02.389Z,0.10
2019-02-28T01:20:30.584Z,0.10
2019-02-28T01:22:59.286Z,0.10
2019-02-28T01:25:27.355Z,0.20
2019-02-28T01:27:55.677Z,0.20
2019-02-28T01:30:23.902Z,0.20
2019-02-28T01:32:52.698Z,0.20
2019-02-28T01:35:20.800Z,0.20
2019-02-28T01:37:49.158Z,0.20
2019-02-28T01:40:17.313Z,0.10
2019-02-28T01:42:45.519Z,0.10
2019-02-28T01:45:13.837Z,0.10
2019-02-28T01:47:42.010Z,0.10
2019-02-28T01:50:10.437Z,0.00
2019-02-28T01:52:44.469Z,0.00
2019-02-28T01:55:08.695Z,-0.10
2019-02-28T01:57:42.347Z,-0.10
2019-02-28T02:00:09.052Z,-0.20
2019-02-28T02:02:38.091Z,-0.20
2019-02-28T02:05:07.204Z,-0.40
2019-02-28T02:07:35.727Z,-0.50
2019-02-28T02:10:07.205Z,-0.60
2019-02-28T02:12:35.253Z,-0.70
2019-02-28T02:15:05.725Z,-0.90
2019-02-28T02:17:35.475Z,-0.80
2019-02-28T02:20:04.136Z,-0.80
2019-02-28T02:22:32.343Z,-0.70
2019-02-28T02:25:03.133Z,-0.60
2019-02-28T02:27:31.276Z,-0.60
2019-02-28T02:29:59.408Z,-0.70
2019-02-28T02:32:27.595Z,-0.70
2019-02-28T02:34:55.740Z,-0.70
2019-02-28T02:37:26.471Z,-0.70
2019-02-28T02:39:53.952Z,-0.70
2019-02-28T02:42:22.015Z,-0.90
2019-02-28T02:44:50.226Z,-0.90
2019-02-28T02:47:18.339Z,-0.90
2019-02-28T02:49:46.602Z,-1.00
2019-02-28T02:52:14.892Z,-1.10
2019-02-28T02:54:44.208Z,-1.30
2019-02-28T02:57:13.884Z,-1.30
2019-02-28T02:59:42.164Z,-1.30
2019-02-28T03:02:10.296Z,-1.10
2019-02-28T03:04:59.868Z,-1.00
2019-02-28T03:07:28.924Z,-1.00
2019-02-28T03:09:57.090Z,-1.10
2019-02-28T03:12:25.408Z,-1.00
2019-02-28T03:14:53.740Z,-1.00
2019-02-28T03:17:21.835Z,-1.10
2019-02-28T03:19:52.515Z,-1.10
2019-02-28T03:22:20.283Z,-1.10
2019-02-28T03:24:51.024Z,-1.20
2019-02-28T03:27:19.194Z,-1.30
2019-02-28T03:29:49.071Z,-1.40
2019-02-28T03:32:17.487Z,-1.50
2019-02-28T03:34:54.719Z,-1.60
2019-02-28T03:37:15.804Z,-1.60
2019-02-28T03:39:44.097Z,-1.70
2019-02-28T03:42:12.063Z,-1.80
2019-02-28T03:44:40.258Z,-1.80
2019-02-28T03:47:08.480Z,-1.80
2019-02-28T03:49:36.659Z,-1.90
2019-02-28T03:52:06.705Z,-1.90
2019-02-28T03:54:36.300Z,-1.80
2019-02-28T03:57:04.596Z,-1.70
2019-02-28T03:59:32.628Z,-1.70
2019-02-28T04:02:00.927Z,-1.70
2019-02-28T04:04:29.057Z,-1.70
2019-02-28T04:06:57.159Z,-1.70
2019-02-28T04:09:25.868Z,-1.70
2019-02-28T04:11:54.448Z,-1.70
2019-02-28T04:14:22.630Z,-1.80
2019-02-28T04:16:54.484Z,-1.70
2019-02-28T04:19:23.967Z,-1.70
2019-02-28T04:21:52.109Z,-1.70
2019-02-28T04:24:20.342Z,-1.60
2019-02-28T04:26:48.649Z,-1.60
2019-02-28T04:29:16.850Z,-1.60
2019-02-28T04:31:46.922Z,-1.60
2019-02-28T04:34:15.176Z,-1.70
2019-02-28T04:36:44.860Z,-1.70
2019-02-28T04:39:13.173Z,-1.70
2019-02-28T04:41:41.346Z,-1.70
2019-02-28T04:44:09.692Z,-1.70
2019-02-28T04:46:38.291Z,-1.60
2019-02-28T04:49:06.527Z,-1.50
2019-02-28T04:51:37.047Z,-1.50
2019-02-28T04:54:04.764Z,-1.40
2019-02-28T04:56:33.488Z,-1.40
2019-02-28T04:59:01.616Z,-1.40
2019-02-28T05:01:29.659Z,-1.50
2019-02-28T05:03:59.182Z,-1.50
2019-02-28T05:06:27.854Z,-1.50
2019-02-28T05:08:55.940Z,-1.50
2019-02-28T05:11:27.420Z,-1.30
2019-02-28T05:13:57.007Z,-1.10
2019-02-28T05:16:24.983Z,-0.70
2019-02-28T05:18:53.241Z,-0.20
2019-02-28T05:21:21.447Z,0.30
2019-02-28T05:23:49.668Z,0.70
2019-02-28T05:26:17.784Z,0.80
2019-02-28T05:28:45.950Z,0.90
2019-02-28T05:31:14.370Z,1.00
2019-02-28T05:33:42.920Z,1.10
2019-02-28T05:36:12.260Z,1.10
2019-02-28T05:38:40.601Z,1.50
2019-02-28T05:41:08.836Z,1.60
2019-02-28T05:43:37.171Z,1.60
2019-02-28T05:46:05.287Z,1.80
2019-02-28T05:48:35.230Z,2.00
2019-02-28T05:51:03.514Z,2.10
2019-02-28T05:53:31.710Z,2.10
2019-02-28T05:56:00.017Z,2.10
2019-02-28T05:58:28.119Z,2.10
2019-02-28T06:00:56.378Z,2.20
2019-02-28T06:03:24.568Z,2.30
2019-02-28T06:05:52.656Z,2.50
2019-02-28T06:08:22.085Z,2.50
2019-02-28T06:10:51.599Z,2.60
2019-02-28T06:13:20.046Z,2.80
2019-02-28T06:15:48.308Z,2.80
2019-02-28T06:18:16.420Z,2.90
2019-02-28T06:20:44.540Z,3.10
2019-02-28T06:23:12.744Z,3.30
2019-02-28T06:25:40.878Z,3.40
2019-02-28T06:28:09.095Z,3.50
2019-02-28T06:30:41.330Z,3.50
2019-02-28T06:33:07.350Z,3.50
2019-02-28T06:35:35.593Z,3.40
2019-02-28T06:38:06.675Z,3.60
2019-02-28T06:40:34.643Z,3.80
2019-02-28T06:43:02.923Z,4.00
2019-02-28T06:45:30.970Z,4.10
2019-02-28T06:47:59.550Z,4.30
2019-02-28T06:50:27.827Z,4.40
2019-02-28T06:52:56.380Z,4.60
2019-02-28T06:55:26.336Z,4.70
2019-02-28T06:57:54.622Z,4.80
2019-02-28T07:00:22.775Z,4.90
2019-02-28T07:02:50.909Z,5.00
2019-02-28T07:05:24.847Z,5.20
2019-02-28T07:07:49.090Z,5.50
2019-02-28T07:10:18.488Z,5.70
2019-02-28T07:12:46.634Z,5.90
2019-02-28T07:15:14.852Z,6.20
2019-02-28T07:17:46.583Z,6.30
2019-02-28T07:20:13.659Z,6.40
2019-02-28T07:22:41.680Z,6.60
2019-02-28T07:25:09.514Z,6.70
2019-02-28T07:27:38.340Z,6.70
2019-02-28T07:30:06.795Z,6.80
2019-02-28T07:32:34.302Z,7.00
2019-02-28T07:35:02.476Z,7.10
2019-02-28T07:37:30.640Z,7.30
2019-02-28T07:39:58.784Z,7.40
2019-02-28T07:42:27.127Z,7.50
2019-02-28T07:44:57.874Z,7.60
2019-02-28T07:47:25.523Z,7.80
2019-02-28T07:49:53.744Z,8.00
2019-02-28T07:52:21.690Z,8.20
2019-02-28T07:54:51.882Z,8.30
2019-02-28T07:57:22.356Z,8.40
2019-02-28T07:59:50.194Z,8.60
2019-02-28T08:02:18.278Z,8.80
2019-02-28T08:04:46.588Z,9.00
2019-02-28T08:07:15.685Z,9.20
2019-02-28T08:09:44.055Z,9.50
2019-02-28T08:12:12.552Z,9.60
2019-02-28T08:14:43.675Z,9.70
2019-02-28T08:17:10.717Z,9.90
2019-02-28T08:19:40.607Z,10.20
2019-02-28T08:22:08.904Z,10.30
2019-02-28T08:24:37.203Z,10.50
2019-02-28T08:27:05.741Z,10.70
2019-02-28T08:29:33.520Z,10.80
2019-02-28T08:32:06.711Z,11.00
2019-02-28T08:34:31.752Z,11.20
2019-02-28T08:37:01.056Z,11.40
2019-02-28T08:39:28.902Z,11.50
2019-02-28T08:42:02.589Z,11.60
2019-02-28T08:44:27.284Z,11.80
2019-02-28T08:46:55.424Z,11.90
2019-02-28T08:49:23.755Z,12.10
2019-02-28T08:51:52.076Z,12.20
2019-02-28T08:54:26.241Z,12.30
2019-02-28T08:56:50.759Z,12.40
2019-02-28T08:59:22.530Z,12.60
2019-02-28T09:01:51.407Z,12.70
2019-02-28T09:04:19.747Z,12.80
2019-02-28T09:06:47.872Z,12.90
2019-02-28T09:09:15.952Z,13.00
2019-02-28T09:11:45.761Z,13.10
2019-02-28T09:14:14.811Z,13.20
2019-02-28T09:16:45.643Z,13.10
2019-02-28T09:19:14.297Z,13.30
2019-02-28T09:21:42.888Z,13.40
2019-02-28T09:24:12.512Z,13.50
2019-02-28T09:26:41.276Z,13.60
2019-02-28T09:29:09.425Z,13.70
2019-02-28T09:31:39.047Z,13.80
2019-02-28T09:34:09.240Z,13.90
2019-02-28T09:36:38.726Z,14.00
2019-02-28T09:39:07.312Z,14.10
2019-02-28T09:41:36.390Z,14.20
2019-02-28T09:44:07.000Z,14.20
2019-02-28T09:46:35.141Z,14.40
2019-02-28T09:49:03.147Z,14.30
2019-02-28T09:51:32.088Z,14.50
2019-02-28T09:54:01.788Z,14.50
2019-02-28T09:56:30.088Z,14.40
2019-02-28T09:59:00.221Z,14.50
2019-02-28T10:01:28.201Z,14.60
2019-02-28T10:03:56.366Z,14.70
2019-02-28T10:06:24.621Z,14.90
2019-02-28T10:08:54.410Z,14.80
2019-02-28T10:11:22.303Z,14.90
2019-02-28T10:13:53.313Z,14.80
2019-02-28T10:16:20.484Z,14.80
2019-02-28T10:18:48.865Z,14.90
2019-02-28T10:21:17.161Z,14.90
2019-02-28T10:23:45.315Z,14.90
2019-02-28T10:26:14.310Z,15.00
2019-02-28T10:28:45.411Z,15.00
2019-02-28T10:31:13.548Z,15.00
2019-02-28T10:33:41.450Z,15.00
2019-02-28T10:36:12.799Z,15.00
2019-02-28T10:38:39.887Z,15.00
2019-02-28T10:41:08.083Z,15.10
2019-02-28T10:43:36.229Z,15.00
2019-02-28T10:46:05.390Z,15.10
2019-02-28T10:48:35.305Z,15.10
2019-02-28T10:51:12.895Z,15.10
2019-02-28T10:53:39.308Z,15.20
2019-02-28T10:56:06.751Z,15.20
2019-02-28T10:58:34.957Z,15.20
2019-02-28T11:01:07.734Z,15.40
2019-02-28T11:03:33.710Z,15.30
2019-02-28T11:06:01.881Z,15.30
2019-02-28T11:08:29.986Z,15.40
2019-02-28T11:10:59.329Z,15.40
2019-02-28T11:13:28.573Z,15.50
2019-02-28T11:15:57.848Z,15.80
2019-02-28T11:18:25.840Z,15.90
2019-02-28T11:20:53.879Z,15.90
2019-02-28T11:23:22.385Z,15.80
2019-02-28T11:25:50.440Z,15.90
2019-02-28T11:28:19.863Z,15.80
2019-02-28T11:30:48.443Z,15.90
2019-02-28T11:33:18.655Z,16.00
2019-02-28T11:35:47.985Z,16.10
2019-02-28T11:38:20.388Z,16.10
2019-02-28T11:40:46.944Z,16.20
2019-02-28T11:43:15.311Z,16.20
2019-02-28T11:45:44.211Z,16.20
2019-02-28T11:48:12.922Z,16.20
2019-02-28T11:50:42.613Z,16.20
2019-02-28T11:53:11.008Z,16.10
2019-02-28T11:55:41.756Z,16.20
2019-02-28T11:58:09.997Z,16.30
2019-02-28T12:00:38.335Z,16.40
2019-02-28T12:03:06.785Z,16.50
2019-02-28T12:05:35.071Z,16.50
2019-02-28T12:08:09.183Z,16.60
2019-02-28T12:10:33.589Z,16.70
2019-02-28T12:13:01.752Z,16.60
2019-02-28T12:15:30.083Z,16.60
2019-02-28T12:18:04.742Z,16.50
2019-02-28T12:20:30.947Z,16.50
2019-02-28T12:22:59.237Z,16.60
2019-02-28T12:25:27.704Z,16.60
2019-02-28T12:27:55.810Z,16.80
2019-02-28T12:30:25.975Z,16.70
2019-02-28T12:33:07.870Z,16.70
2019-02-28T12:35:40.349Z,16.70
2019-02-28T12:38:15.938Z,16.80
2019-02-28T12:40:49.318Z,16.70
2019-02-28T12:43:17.625Z,16.90
2019-02-28T12:45:56.873Z,16.70
2019-02-28T12:48:31.166Z,16.90
2019-02-28T12:51:08.152Z,16.80
2019-02-28T12:53:36.308Z,16.80
2019-02-28T12:56:04.591Z,16.80
2019-02-28T12:58:38.904Z,16.90
2019-02-28T13:01:03.266Z,16.90
2019-02-28T13:03:31.350Z,16.90
2019-02-28T13:05:59.390Z,17.00
2019-02-28T13:08:27.511Z,17.00
2019-02-28T13:10:55.665Z,17.00
2019-02-28T13:13:27.669Z,17.10
2019-02-28T13:15:55.712Z,17.10
2019-02-28T13:18:23.969Z,17.10
2019-02-28T13:20:52.076Z,17.00
2019-02-28T13:23:20.120Z,17.10
2019-02-28T13:25:48.613Z,17.00
2019-02-28T13:28:17.853Z,17.10
2019-02-28T13:30:50.324Z,17.00
2019-02-28T13:33:16.367Z,17.20
2019-02-28T13:35:47.063Z,17.20
2019-02-28T13:38:19.063Z,17.20
2019-02-28T13:40:45.861Z,17.30
2019-02-28T13:43:19.762Z,17.30
2019-02-28T13:45:44.348Z,17.40
2019-02-28T13:48:12.928Z,17.30
2019-02-28T13:50:41.060Z,17.00
2019-02-28T13:53:17.529Z,17.10
2019-02-28T13:55:39.664Z,17.00
2019-02-28T13:58:07.832Z,16.60
2019-02-28T14:00:36.047Z,16.40
2019-02-28T14:03:08.917Z,16.30
2019-02-28T14:05:40.530Z,16.50
2019-02-28T14:08:09.792Z,16.50
2019-02-28T14:10:37.413Z,16.60
2019-02-28T14:13:06.008Z,16.80
2019-02-28T14:15:39.152Z,17.10
2019-02-28T14:18:10.494Z,17.10
2019-02-28T14:20:37.567Z,17.00
2019-02-28T14:23:07.297Z,16.80
2019-02-28T14:25:36.260Z,16.70
2019-02-28T14:28:05.603Z,16.80
2019-02-28T14:30:33.808Z,16.90
2019-02-28T14:33:03.663Z,17.10
2019-02-28T14:35:35.492Z,17.20
2019-02-28T14:38:02.109Z,17.40
2019-02-28T14:40:30.224Z,17.40
2019-02-28T14:42:58.328Z,17.50
2019-02-28T14:45:26.467Z,17.50
2019-02-28T14:47:57.239Z,17.50
2019-02-28T14:50:25.006Z,17.50
2019-02-28T14:52:53.693Z,17.30
2019-02-28T14:55:21.863Z,17.30
2019-02-28T14:57:50.116Z,17.20
2019-02-28T15:00:20.157Z,17.10
2019-02-28T15:02:48.299Z,17.00
2019-02-28T15:05:16.605Z,16.90
2019-02-28T15:07:46.492Z,16.80
2019-02-28T15:10:16.020Z,16.90
2019-02-28T15:12:44.380Z,16.90
2019-02-28T15:15:14.892Z,16.90
2019-02-28T15:17:44.531Z,16.70
2019-02-28T15:20:13.519Z,16.50
2019-02-28T15:22:43.546Z,16.50
2019-02-28T15:25:15.268Z,16.60
2019-02-28T15:27:44.195Z,16.60
2019-02-28T15:30:17.611Z,16.70
2019-02-28T15:32:45.764Z,16.70
2019-02-28T15:35:16.014Z,16.60
2019-02-28T15:37:45.475Z,16.50
2019-02-28T15:40:17.120Z,16.30
2019-02-28T15:42:45.288Z,16.30
2019-02-28T15:45:13.523Z,16.20
2019-02-28T15:47:41.655Z,16.10
2019-02-28T15:50:13.508Z,16.10
2019-02-28T15:52:41.914Z,15.90
2019-02-28T15:55:10.854Z,15.80
2019-02-28T15:57:39.203Z,15.80
2019-02-28T16:03:53.758Z,17.90
2019-02-28T16:11:07.166Z,20.20
2019-02-28T16:13:35.365Z,17.50
2019-02-28T16:16:03.556Z,16.40
2019-02-28T16:18:31.775Z,15.80
2019-02-28T16:21:03.425Z,15.50
2019-02-28T16:23:48.198Z,15.40
2019-02-28T16:26:18.242Z,15.20
2019-02-28T16:28:47.576Z,15.10
2019-02-28T16:31:38.487Z,15.10
2019-02-28T16:34:08.244Z,14.90
2019-02-28T16:36:38.513Z,14.70
2019-02-28T16:39:16.919Z,14.50
2019-02-28T16:41:49.637Z,14.60
2019-02-28T16:44:31.804Z,14.30
2019-02-28T16:47:11.002Z,14.10
2019-02-28T16:50:04.485Z,14.00
2019-02-28T16:52:37.322Z,13.80
2019-02-28T16:55:07.986Z,13.60
2019-02-28T16:57:39.145Z,13.40
2019-02-28T17:00:10.650Z,13.30
2019-02-28T17:02:40.629Z,13.40
2019-02-28T17:05:09.145Z,13.30
2019-02-28T17:07:43.596Z,13.30
2019-02-28T17:10:13.999Z,13.20
2019-02-28T17:13:13.975Z,13.20
2019-02-28T17:15:51.151Z,13.20
2019-02-28T17:18:21.633Z,13.30
2019-02-28T17:20:50.337Z,13.20
2019-02-28T17:23:19.979Z,13.20
2019-02-28T17:25:53.562Z,13.10
2019-02-28T17:28:58.048Z,12.90
2019-02-28T17:31:58.336Z,12.70
2019-02-28T17:34:27.458Z,12.70
2019-02-28T17:36:55.580Z,12.60
2019-02-28T17:39:23.778Z,12.50
2019-02-28T17:41:52.037Z,12.30
2019-02-28T17:44:49.451Z,12.30
2019-02-28T17:48:22.149Z,12.20
2019-02-28T17:51:32.537Z,12.20
2019-02-28T17:54:40.787Z,12.10
2019-02-28T17:57:42.316Z,12.20
2019-02-28T18:00:52.948Z,12.10
2019-02-28T18:03:48.409Z,12.00
2019-02-28T18:06:50.178Z,12.00
2019-02-28T18:10:14.828Z,11.90
2019-02-28T18:13:36.371Z,11.80
2019-02-28T18:16:47.183Z,11.80
2019-02-28T18:19:44.135Z,11.70
2019-02-28T18:22:41.867Z,11.60
2019-02-28T18:25:43.378Z,11.40
2019-02-28T18:28:58.098Z,11.40
2019-02-28T18:31:27.643Z,11.30
2019-02-28T18:33:59.263Z,11.30
2019-02-28T18:36:29.254Z,11.30
2019-02-28T18:38:59.599Z,11.20
2019-02-28T18:41:28.117Z,11.10
2019-02-28T18:43:56.321Z,11.10
2019-02-28T18:46:29.463Z,11.20
2019-02-28T18:48:59.020Z,11.10
2019-02-28T18:51:26.291Z,11.00
2019-02-28T18:54:01.091Z,11.00
2019-02-28T18:56:31.163Z,11.00
2019-02-28T18:58:59.989Z,11.00
2019-02-28T19:01:28.984Z,11.00
2019-02-28T19:03:57.273Z,11.00
2019-02-28T19:06:31.811Z,10.90
2019-02-28T19:09:11.224Z,10.80
2019-02-28T19:11:40.565Z,10.80
2019-02-28T19:14:09.559Z,10.70
2019-02-28T19:16:37.828Z,10.60
2019-02-28T19:19:06.380Z,10.50
2019-02-28T19:21:34.713Z,10.50
2019-02-28T19:24:02.908Z,10.80
2019-02-28T19:26:31.816Z,10.90
2019-02-28T19:29:00.018Z,11.00
2019-02-28T19:31:28.060Z,11.10
2019-02-28T19:33:56.468Z,11.10
2019-02-28T19:36:24.652Z,11.10
2019-02-28T19:38:54.923Z,11.00
2019-02-28T19:41:26.119Z,10.90
2019-02-28T19:43:55.031Z,10.80
2019-02-28T19:46:25.103Z,10.70
2019-02-28T19:48:56.383Z,10.60
2019-02-28T19:51:26.447Z,10.60
2019-02-28T19:53:54.667Z,10.40
2019-02-28T19:56:22.907Z,10.20
2019-02-28T19:58:51.413Z,9.80
2019-02-28T20:01:19.572Z,9.60
2019-02-28T20:03:47.684Z,9.50
2019-02-28T20:06:15.944Z,9.40
2019-02-28T20:08:46.228Z,9.50
2019-02-28T20:11:14.628Z,9.50
2019-02-28T20:13:43.536Z,9.50
2019-02-28T20:16:13.743Z,9.50
2019-02-28T20:18:41.603Z,9.50
2019-02-28T20:21:10.130Z,9.50
2019-02-28T20:23:39.924Z,9.40
2019-02-28T20:26:14.938Z,9.40
2019-02-28T20:28:44.140Z,9.20
2019-02-28T20:31:13.397Z,8.90
2019-02-28T20:33:41.800Z,8.70
2019-02-28T20:36:10.309Z,8.80
2019-02-28T20:38:39.924Z,8.80
2019-02-28T20:41:08.867Z,8.80
2019-02-28T20:43:37.262Z,8.60
2019-02-28T20:46:12.501Z,8.50
2019-02-28T20:48:41.825Z,8.20
2019-02-28T20:51:13.999Z,8.10
2019-02-28T20:53:42.380Z,8.00
2019-02-28T20:56:10.603Z,7.90
2019-02-28T20:58:38.629Z,7.90
2019-02-28T21:01:11.762Z,7.80
2019-02-28T21:03:40.152Z,7.90
2019-02-28T21:06:12.109Z,8.00
2019-02-28T21:08:41.270Z,8.20
2019-02-28T21:11:10.603Z,8.50
2019-02-28T21:13:42.923Z,8.60
2019-02-28T21:16:13.665Z,8.80
2019-02-28T21:18:41.329Z,8.60
2019-02-28T21:21:10.030Z,8.60
2019-02-28T21:23:38.780Z,8.70
2019-02-28T21:26:07.263Z,8.60
2019-02-28T21:28:35.623Z,8.70
2019-02-28T21:31:08.566Z,8.60
2019-02-28T21:33:38.898Z,8.50
2019-02-28T21:36:07.244Z,8.40
2019-02-28T21:38:35.255Z,8.40
2019-02-28T21:41:13.763Z,8.20
2019-02-28T21:43:45.081Z,8.10
2019-02-28T21:46:14.572Z,8.00
2019-02-28T21:48:42.704Z,8.20
2019-02-28T21:51:11.010Z,8.40
2019-02-28T21:53:39.239Z,8.40
2019-02-28T21:56:07.377Z,8.40
2019-02-28T21:58:35.608Z,8.60
2019-02-28T22:01:03.912Z,8.60
2019-02-28T22:03:32.156Z,8.60
2019-02-28T22:06:00.416Z,8.70
2019-02-28T22:08:28.744Z,8.60
2019-02-28T22:10:57.691Z,8.60
2019-02-28T22:13:26.028Z,8.70
2019-02-28T22:15:54.240Z,8.80
2019-02-28T22:18:22.438Z,8.80
2019-02-28T22:20:50.687Z,8.80
2019-02-28T22:23:18.681Z,8.70
2019-02-28T22:25:46.874Z,8.80
2019-02-28T22:28:15.192Z,8.70
2019-02-28T22:31:00.563Z,8.80
2019-02-28T22:34:03.460Z,8.80
2019-02-28T22:36:35.029Z,8.70
2019-02-28T22:39:04.240Z,8.60
2019-02-28T22:41:32.184Z,8.60
2019-02-28T22:44:00.426Z,8.70
2019-02-28T22:46:28.363Z,8.60
2019-02-28T22:48:56.643Z,8.60
2019-02-28T22:51:24.884Z,8.60
2019-02-28T22:53:53.998Z,8.50
2019-02-28T22:56:22.098Z,8.40
2019-02-28T22:58:50.263Z,8.40
2019-02-28T23:01:19.948Z,8.30
2019-02-28T23:03:49.357Z,8.40
2019-02-28T23:06:17.515Z,8.50
2019-02-28T23:08:45.517Z,8.40
2019-02-28T23:11:14.000Z,8.40
2019-02-28T23:13:42.037Z,8.30
2019-02-28T23:16:11.019Z,8.30
2019-02-28T23:18:40.124Z,8.30
2019-02-28T23:21:08.213Z,8.20
2019-02-28T23:23:36.458Z,8.20
2019-02-28T23:26:13.057Z,8.10
2019-02-28T23:28:52.884Z,8.10
2019-02-28T23:32:16.303Z,8.10
2019-02-28T23:34:50.579Z,8.20
2019-02-28T23:37:18.764Z,8.20
2019-02-28T23:39:47.066Z,8.30
2019-02-28T23:42:15.023Z,8.30
2019-02-28T23:44:43.271Z,8.30
2019-02-28T23:47:12.141Z,8.20
2019-02-28T23:49:40.548Z,8.30
2019-02-28T23:52:08.851Z,8.30
2019-02-28T23:54:36.967Z,8.30
2019-02-28T23:57:05.382Z,8.40
2019-02-28T23:59:33.524Z,8.40
